createdAt,value
2023-03-01T00:00:22.503Z,43.03
2023-03-01T00:04:28.864Z,43.43
2023-03-01T00:08:34.113Z,51.23
2023-03-01T00:12:38.457Z,43.43
2023-03-01T00:16:46.644Z,48.67
2023-03-01T00:20:53.387Z,43.93
2023-03-01T00:25:03.188Z,43.43
2023-03-01T00:29:32.706Z,48.13
2023-03-01T00:33:38.732Z,47.40
2023-03-01T00:37:43.654Z,44.73
2023-03-01T00:41:47.267Z,42.73
2023-03-01T00:46:17.305Z,44.03
2023-03-01T00:50:23.016Z,46.63
2023-03-01T00:54:26.713Z,45.03
2023-03-01T00:58:30.400Z,45.77
2023-03-01T01:02:35.827Z,44.77
2023-03-01T01:06:46.260Z,49.57
2023-03-01T01:10:50.471Z,43.33
2023-03-01T01:15:20.672Z,57.90
2023-03-01T01:19:25.042Z,49.67
2023-03-01T01:23:30.152Z,45.57
2023-03-01T01:28:12.227Z,48.00
2023-03-01T01:32:16.158Z,45.20
2023-03-01T01:36:19.989Z,40.20
2023-03-01T01:40:54.420Z,51.40
2023-03-01T01:45:30.869Z,47.20
2023-03-01T01:50:39.163Z,46.87
2023-03-01T01:59:36.769Z,47.43
2023-03-01T02:03:44.554Z,48.27
2023-03-01T02:07:53.673Z,50.73
2023-03-01T02:12:00.949Z,49.70
2023-03-01T02:16:32.719Z,44.80
2023-03-01T02:20:43.248Z,46.70
2023-03-01T02:25:15.035Z,47.93
2023-03-01T02:29:20.357Z,47.50
2023-03-01T02:33:29.802Z,42.47
2023-03-01T02:37:33.618Z,42.53
2023-03-01T02:41:41.439Z,42.57
2023-03-01T02:45:54.048Z,47.97
2023-03-01T02:49:57.994Z,43.90
2023-03-01T02:54:14.940Z,47.30
2023-03-01T02:58:18.813Z,53.90
2023-03-01T03:02:38.286Z,46.10
2023-03-01T03:07:01.178Z,49.83
2023-03-01T03:11:43.824Z,50.97
2023-03-01T03:15:48.044Z,46.47
2023-03-01T03:19:53.316Z,47.57
2023-03-01T03:24:22.502Z,52.30
2023-03-01T03:28:26.166Z,47.10
2023-03-01T03:32:29.804Z,48.40
2023-03-01T03:54:54.853Z,23.80
2023-03-01T03:59:49.149Z,43.27
2023-03-01T04:03:55.602Z,42.63
2023-03-01T04:08:26.808Z,50.63
2023-03-01T04:12:32.079Z,51.47
2023-03-01T04:16:37.080Z,54.80
2023-03-01T04:20:40.869Z,37.47
2023-03-01T04:24:44.600Z,45.20
2023-03-01T04:28:51.704Z,47.43
2023-03-01T04:32:55.449Z,44.90
2023-03-01T04:36:59.221Z,51.40
2023-03-01T04:41:05.428Z,45.60
2023-03-01T04:45:14.341Z,55.83
2023-03-01T04:49:18.311Z,48.87
2023-03-01T04:53:33.536Z,47.20
2023-03-01T04:57:37.234Z,48.30
2023-03-01T05:01:44.087Z,48.03
2023-03-01T05:05:53.642Z,51.33
2023-03-01T05:09:57.509Z,43.37
2023-03-01T05:14:08.137Z,47.23
2023-03-01T05:18:13.217Z,48.87
2023-03-01T05:22:16.921Z,47.43
2023-03-01T05:26:29.992Z,52.47
2023-03-01T05:30:35.133Z,47.30
2023-03-01T05:34:40.204Z,51.57
2023-03-01T05:38:43.914Z,46.60
2023-03-01T05:42:56.638Z,47.00
2023-03-01T05:47:00.308Z,46.67
2023-03-01T05:51:05.535Z,54.73
2023-03-01T05:55:35.389Z,45.07
2023-03-01T06:00:04.561Z,42.60
2023-03-01T06:04:53.320Z,45.27
2023-03-01T06:08:58.561Z,48.70
2023-03-01T06:13:29.406Z,48.77
2023-03-01T06:17:38.449Z,47.30
2023-03-01T06:21:42.257Z,47.17
2023-03-01T06:25:49.577Z,45.10
2023-03-01T06:29:54.327Z,46.83
2023-03-01T06:33:58.338Z,46.70
2023-03-01T06:38:03.538Z,51.93
2023-03-01T06:42:31.747Z,49.83
2023-03-01T06:47:02.047Z,47.47
2023-03-01T06:51:05.968Z,41.40
2023-03-01T06:55:15.860Z,42.43
2023-03-01T06:59:20.121Z,43.10
2023-03-01T07:03:25.344Z,43.60
2023-03-01T07:07:33.305Z,43.97
2023-03-01T07:11:36.867Z,43.43
2023-03-01T07:16:02.484Z,38.57
2023-03-01T07:20:08.490Z,43.90
2023-03-01T07:24:12.343Z,37.17
2023-03-01T07:28:21.292Z,38.77
2023-03-01T07:32:25.343Z,38.40
2023-03-01T07:36:30.848Z,40.47
2023-03-01T07:40:35.213Z,36.10
2023-03-01T07:45:04.302Z,44.03
2023-03-01T07:49:18.235Z,40.30
2023-03-01T07:53:23.595Z,34.97
2023-03-01T07:57:27.655Z,36.57
2023-03-01T08:01:31.583Z,36.17
2023-03-01T08:05:35.383Z,38.80
2023-03-01T08:09:40.616Z,38.13
2023-03-01T08:13:53.454Z,40.87
2023-03-01T08:17:57.713Z,39.97
2023-03-01T08:22:01.448Z,39.47
2023-03-01T08:26:11.934Z,40.60
2023-03-01T08:30:40.412Z,35.20
2023-03-01T08:34:44.054Z,37.50
2023-03-01T08:38:47.781Z,33.20
2023-03-01T08:43:19.305Z,39.33
2023-03-01T08:47:38.816Z,36.67
2023-03-01T08:51:42.861Z,34.40
2023-03-01T08:56:04.410Z,33.47
2023-03-01T09:00:11.902Z,32.20
2023-03-01T09:04:17.475Z,33.83
2023-03-01T09:08:21.583Z,30.70
2023-03-01T09:12:27.262Z,33.13
2023-03-01T09:16:39.163Z,30.70
2023-03-01T09:20:42.975Z,28.73
2023-03-01T09:24:46.758Z,27.77
2023-03-01T09:28:52.268Z,27.00
2023-03-01T09:32:59.312Z,32.10
2023-03-01T09:37:29.643Z,29.73
2023-03-01T09:41:49.899Z,28.43
2023-03-01T09:45:57.699Z,26.57
2023-03-01T09:50:09.540Z,25.07
2023-03-01T09:54:13.975Z,23.37
2023-03-01T10:05:35.302Z,21.27
2023-03-01T10:09:40.816Z,23.30
2023-03-01T10:14:32.515Z,23.97
2023-03-01T10:19:43.639Z,19.73
2023-03-01T10:23:59.987Z,20.47
2023-03-01T10:28:58.963Z,22.33
2023-03-01T10:33:30.148Z,16.33
2023-03-01T10:37:34.016Z,19.83
2023-03-01T10:43:05.734Z,20.90
2023-03-01T10:59:27.896Z,18.30
2023-03-01T11:04:15.340Z,20.47
2023-03-01T11:14:38.284Z,20.13
2023-03-01T11:19:19.878Z,25.87
2023-03-01T11:24:11.928Z,22.23
2023-03-01T11:28:33.021Z,23.40
2023-03-01T11:32:52.868Z,23.43
2023-03-01T11:41:46.014Z,23.90
2023-03-01T11:46:37.704Z,23.63
2023-03-01T11:51:07.605Z,21.20
2023-03-01T11:55:57.058Z,25.43
2023-03-01T12:01:07.937Z,23.50
2023-03-01T14:54:27.606Z,30.23
2023-03-01T15:18:05.989Z,30.53
2023-03-01T15:50:00.532Z,32.03
2023-03-01T15:54:23.993Z,34.33
2023-03-01T16:09:29.088Z,35.43
2023-03-01T16:19:40.107Z,35.70
2023-03-01T16:24:20.726Z,35.07
2023-03-01T16:28:30.922Z,32.70
2023-03-01T16:32:49.630Z,35.80
2023-03-01T16:36:55.281Z,36.17
2023-03-01T16:41:03.451Z,36.67
2023-03-01T16:45:27.911Z,37.70
2023-03-01T16:49:38.207Z,37.23
2023-03-01T16:53:48.059Z,35.43
2023-03-01T16:58:08.477Z,36.80
2023-03-01T17:06:58.509Z,33.17
2023-03-01T17:11:44.144Z,37.67
2023-03-01T17:15:52.731Z,32.33
2023-03-01T17:19:56.617Z,36.37
2023-03-01T17:24:42.471Z,35.07
2023-03-01T17:29:22.627Z,34.57
2023-03-01T17:34:33.963Z,34.37
2023-03-01T17:44:43.977Z,35.03
2023-03-01T17:56:00.610Z,34.47
2023-03-01T18:00:51.337Z,39.10
2023-03-01T18:06:32.003Z,35.60
2023-03-01T18:10:50.320Z,33.60
2023-03-01T18:16:08.186Z,36.70
2023-03-01T18:26:38.091Z,42.20
2023-03-01T18:31:35.175Z,35.47
2023-03-01T18:35:44.455Z,37.80
2023-03-01T18:41:03.818Z,34.03
2023-03-01T18:46:17.859Z,40.60
2023-03-01T18:50:51.723Z,34.83
2023-03-01T18:55:46.623Z,30.23
2023-03-01T19:00:53.039Z,34.90
2023-03-01T19:11:03.973Z,32.27
2023-03-01T19:21:50.617Z,30.73
2023-03-01T19:27:40.072Z,30.03
2023-03-01T19:37:15.973Z,39.77
2023-03-01T19:42:33.265Z,39.33
2023-03-01T19:47:01.273Z,32.53
2023-03-01T19:51:05.401Z,31.77
2023-03-01T19:55:12.708Z,37.57
2023-03-01T19:59:48.635Z,33.30
2023-03-01T20:04:33.351Z,33.37
2023-03-01T20:09:49.536Z,36.67
2023-03-01T20:14:33.310Z,41.07
2023-03-01T20:18:37.909Z,34.30
2023-03-01T20:22:57.261Z,39.13
2023-03-01T20:27:03.290Z,37.60
2023-03-01T20:31:30.690Z,38.27
2023-03-01T20:35:38.670Z,40.03
2023-03-01T20:39:45.922Z,40.07
2023-03-01T20:44:15.206Z,35.67
2023-03-01T20:48:49.545Z,38.37
2023-03-01T20:52:53.312Z,41.87
2023-03-01T20:56:59.475Z,42.87
2023-03-01T21:01:28.530Z,39.33
2023-03-01T21:05:38.168Z,44.70
2023-03-01T21:09:42.788Z,40.00
2023-03-01T21:13:47.144Z,41.13
2023-03-01T21:17:50.895Z,46.47
2023-03-01T21:21:56.160Z,45.83
2023-03-01T21:26:04.594Z,46.57
2023-03-01T21:30:23.216Z,49.60
2023-03-01T21:35:16.621Z,53.93
2023-03-01T21:39:46.692Z,52.87
2023-03-01T21:43:52.357Z,58.20
2023-03-01T21:48:36.987Z,57.00
2023-03-01T21:52:41.045Z,61.07
2023-03-01T21:56:48.838Z,63.37
2023-03-01T22:00:52.853Z,69.87
2023-03-01T22:05:29.343Z,66.57
2023-03-01T22:09:35.322Z,64.40
2023-03-01T22:13:43.428Z,73.03
2023-03-01T22:17:47.350Z,69.13
2023-03-01T22:21:54.361Z,74.63
2023-03-01T22:25:58.113Z,68.97
2023-03-01T22:30:31.052Z,78.33
2023-03-01T22:34:35.820Z,71.60
2023-03-01T22:38:42.008Z,76.53
2023-03-01T22:42:48.606Z,76.73
2023-03-01T22:46:56.654Z,67.93
2023-03-01T22:51:00.477Z,66.70
2023-03-01T22:55:33.010Z,75.93
2023-03-01T22:59:38.845Z,78.90
2023-03-01T23:03:58.592Z,74.60
2023-03-01T23:08:11.211Z,70.77
2023-03-01T23:12:14.890Z,75.57
2023-03-01T23:17:18.244Z,75.50
2023-03-01T23:21:24.224Z,72.57
2023-03-01T23:25:30.145Z,72.63
2023-03-01T23:29:34.193Z,70.47
2023-03-01T23:33:43.673Z,72.30
2023-03-01T23:37:48.960Z,71.73
2023-03-01T23:42:43.759Z,71.33
2023-03-01T23:46:48.841Z,67.23
2023-03-01T23:50:52.780Z,72.77
2023-03-01T23:54:58.042Z,71.90
2023-03-01T23:59:03.549Z,74.60
